Time;durP1;ratioP1;P1;durP2;ratioP2;P2;SDS_P1;SDS_P2;PMS_P1;PMS_P2;Temp;Humidity;BMP_temperature;BMP_pressure;BME280_temperature;BME280_humidity;BME280_pressure;Samples;Min_cycle;Max_cycle;Signal;HPM_P1;HPM_P2
2023/06/06 00:01:57;;;;;;;;;8.00;7.50;;;;;19.94;50.45;101343.16;6278247;22;45323;-68
2023/06/06 00:04:22;;;;;;;;;10.25;9.25;;;;;19.98;50.42;101364.56;6277791;22;45537;-68
2023/06/06 00:06:47;;;;;;;;;8.50;8.50;;;;;19.89;50.80;101372.38;6249582;22;46994;-68
2023/06/06 00:09:13;;;;;;;;;12.25;8.75;;;;;19.58;51.23;101334.47;6249154;22;45327;-68
2023/06/06 00:11:39;;;;;;;;;8.00;7.50;;;;;19.61;51.37;101337.00;6277957;22;45398;-68
2023/06/06 00:14:07;;;;;;;;;5.50;5.25;;;;;19.78;51.51;101370.34;6276803;22;45343;-68
2023/06/06 00:16:34;;;;;;;;;7.50;7.50;;;;;19.73;51.43;101365.19;6249602;22;46314;-68
2023/06/06 00:19:00;;;;;;;;;10.00;9.00;;;;;19.67;51.34;101361.97;6277113;22;45174;-68
2023/06/06 00:21:27;;;;;;;;;10.75;8.75;;;;;19.55;51.76;101358.19;6278003;22;45253;-68
2023/06/06 00:23:54;;;;;;;;;8.50;8.00;;;;;19.49;51.63;101362.09;6248728;22;45394;-68
2023/06/06 00:26:20;;;;;;;;;11.50;9.25;;;;;19.46;51.91;101356.00;6277347;22;45490;-68
2023/06/06 00:28:46;;;;;;;;;10.25;9.25;;;;;19.53;51.92;101365.50;6277287;22;45393;-68
2023/06/06 00:31:11;;;;;;;;;12.00;12.00;;;;;19.38;52.01;101341.09;6277720;22;45497;-68
2023/06/06 00:33:36;;;;;;;;;8.25;7.25;;;;;19.31;51.81;101336.13;6249663;22;45425;-68
2023/06/06 00:36:02;;;;;;;;;12.50;10.50;;;;;19.37;52.07;101355.59;6277607;22;45390;-68
2023/06/06 00:38:28;;;;;;;;;6.50;6.50;;;;;19.32;52.17;101354.13;6276802;22;45186;-68
2023/06/06 00:40:53;;;;;;;;;12.50;11.50;;;;;19.29;52.06;101347.06;6250025;22;45953;-68
2023/06/06 00:43:19;;;;;;;;;6.50;6.50;;;;;19.33;52.81;101359.47;6277129;22;45189;-68
2023/06/06 00:45:44;;;;;;;;;11.75;8.50;;;;;19.29;52.17;101357.00;6277347;22;45294;-68
2023/06/06 00:48:10;;;;;;;;;10.50;9.25;;;;;19.24;52.67;101357.28;6249431;22;45283;-68
2023/06/06 00:50:36;;;;;;;;;11.50;11.25;;;;;19.23;52.37;101366.38;6277713;22;45213;-68
2023/06/06 00:53:03;;;;;;;;;12.50;11.50;;;;;19.08;52.46;101343.78;6249450;22;45627;-68
2023/06/06 00:55:31;;;;;;;;;11.75;10.00;;;;;19.03;51.95;101344.06;6277251;22;45512;-68
2023/06/06 00:57:59;;;;;;;;;7.75;7.75;;;;;19.06;52.94;101345.69;6249432;22;45972;-68
2023/06/06 01:00:27;;;;;;;;;11.75;10.50;;;;;19.04;52.89;101342.22;6277139;22;45189;-68
2023/06/06 01:02:53;;;;;;;;;10.75;10.25;;;;;19.00;52.79;101337.97;6277567;22;45275;-68
2023/06/06 01:05:19;;;;;;;;;12.00;10.50;;;;;18.82;52.99;101308.25;6277344;22;46525;-68
2023/06/06 01:07:47;;;;;;;;;10.00;8.25;;;;;18.97;52.62;101335.44;6277161;22;45621;-68
2023/06/06 01:10:13;;;;;;;;;15.25;11.25;;;;;18.97;53.19;101336.28;6276542;22;45247;-68
2023/06/06 01:12:56;;;;;;;;;13.00;10.50;;;;;19.00;52.81;101354.19;6276927;22;45512;-68
2023/06/06 01:15:28;;;;;;;;;12.50;10.00;;;;;18.91;53.41;101344.78;6277394;22;45622;-68
2023/06/06 01:17:54;;;;;;;;;9.50;7.00;;;;;18.68;53.38;101310.91;6249246;22;46072;-68
2023/06/06 01:20:22;;;;;;;;;17.00;12.25;;;;;18.66;53.75;101305.59;6249980;22;45323;-68
2023/06/06 01:22:48;;;;;;;;;12.25;11.50;;;;;18.85;53.57;101340.59;6277061;22;45470;-67
2023/06/06 01:25:19;;;;;;;;;8.75;5.25;;;;;18.72;53.44;101320.59;6276425;22;45256;-69
2023/06/06 01:27:47;;;;;;;;;8.75;7.50;;;;;18.75;53.57;101325.81;6277122;22;45740;-68
2023/06/06 01:30:15;;;;;;;;;13.00;11.25;;;;;18.70;53.30;101298.16;6249385;22;45278;-68
2023/06/06 01:33:01;;;;;;;;;14.00;12.00;;;;;18.86;53.54;101339.63;6277309;22;45521;-68
2023/06/06 01:35:38;;;;;;;;;12.00;12.00;;;;;18.81;53.61;101344.41;6277674;22;46610;-68
2023/06/06 01:38:12;;;;;;;;;15.50;13.50;;;;;18.64;53.80;101323.75;6277851;22;45491;-68
2023/06/06 01:40:40;;;;;;;;;12.50;8.75;;;;;18.65;53.60;101338.13;6278524;22;45351;-68
2023/06/06 01:43:08;;;;;;;;;14.75;12.25;;;;;18.34;53.86;101304.69;6250621;22;45478;-68
2023/06/06 01:45:35;;;;;;;;;16.25;14.50;;;;;18.50;54.05;101332.63;6278172;22;45288;-68
2023/06/06 01:48:01;;;;;;;;;14.25;12.00;;;;;18.32;53.91;101306.63;6278140;22;45240;-68
2023/06/06 01:50:26;;;;;;;;;12.00;11.25;;;;;18.23;54.63;101310.72;6250716;22;45449;-68
2023/06/06 01:52:53;;;;;;;;;10.75;9.75;;;;;18.45;54.56;101345.53;6278485;22;45718;-68
2023/06/06 01:55:18;;;;;;;;;11.50;11.50;;;;;18.18;54.60;101293.88;6277587;22;46364;-68
2023/06/06 01:57:44;;;;;;;;;14.25;13.50;;;;;18.18;54.62;101306.53;6249109;22;45715;-68
2023/06/06 02:00:12;;;;;;;;;14.00;12.00;;;;;18.33;54.63;101328.16;6278458;22;45398;-68
2023/06/06 02:02:37;;;;;;;;;14.00;11.25;;;;;18.27;54.49;101322.22;6277931;22;45359;-68
2023/06/06 02:05:03;;;;;;;;;11.75;11.50;;;;;18.23;54.91;101326.06;6249493;22;47880;-68
2023/06/06 02:07:30;;;;;;;;;14.75;11.00;;;;;18.19;54.66;101333.44;6277670;22;45194;-68
2023/06/06 02:09:55;;;;;;;;;10.25;10.25;;;;;18.12;54.77;101334.75;6278042;22;45352;-68
2023/06/06 02:12:21;;;;;;;;;14.25;12.25;;;;;18.06;55.49;101321.56;6278200;22;45233;-68
2023/06/06 02:14:46;;;;;;;;;1.50;1.50;;;;;17.78;55.69;101291.50;6278105;22;45261;-68
2023/06/06 02:17:12;;;;;;;;;15.75;12.75;;;;;18.01;55.19;101329.94;6250103;22;45547;-68
2023/06/06 02:19:37;;;;;;;;;14.75;13.50;;;;;17.99;55.70;101330.97;6278323;22;45317;-68
2023/06/06 02:22:03;;;;;;;;;13.75;13.25;;;;;17.66;55.20;101281.38;6278018;22;45625;-68
2023/06/06 02:24:28;;;;;;;;;12.50;12.00;;;;;17.81;55.95;101314.78;6277737;22;45466;-68
2023/06/06 02:26:54;;;;;;;;;12.00;11.75;;;;;17.78;55.53;101320.34;6249595;22;45308;-68
2023/06/06 02:29:22;;;;;;;;;16.25;13.00;;;;;17.82;56.12;101331.84;6278374;22;45417;-68
2023/06/06 02:31:51;;;;;;;;;16.75;12.25;;;;;17.84;55.52;101340.72;6278002;22;45271;-68
2023/06/06 02:34:17;;;;;;;;;12.75;12.75;;;;;17.60;56.19;101317.63;6278427;22;46087;-68
2023/06/06 02:36:42;;;;;;;;;15.50;13.00;;;;;17.67;56.47;101336.22;6277911;22;45445;-68
2023/06/06 02:39:08;;;;;;;;;13.00;12.00;;;;;17.52;56.08;101298.28;6277876;22;45399;-68
2023/06/06 02:41:34;;;;;;;;;14.50;13.50;;;;;17.36;56.22;101289.25;6278299;22;45510;-68
2023/06/06 02:43:59;;;;;;;;;15.50;12.75;;;;;17.54;56.17;101325.19;6250266;22;47399;-68
2023/06/06 02:46:25;;;;;;;;;16.00;14.25;;;;;17.33;56.65;101284.88;6277801;22;45311;-68
2023/06/06 02:48:50;;;;;;;;;11.75;11.25;;;;;17.64;56.33;101334.56;6278010;22;45310;-68
2023/06/06 02:51:16;;;;;;;;;16.50;14.75;;;;;17.60;56.43;101331.13;6250942;22;45236;-68
2023/06/06 02:53:43;;;;;;;;;14.25;13.50;;;;;17.62;56.39;101322.97;6277801;22;45711;-68
2023/06/06 02:56:10;;;;;;;;;14.50;12.25;;;;;17.58;56.31;101332.19;6277996;22;45577;-68
2023/06/06 02:58:35;;;;;;;;;16.25;15.00;;;;;17.55;56.30;101314.31;6277888;22;45444;-68
2023/06/06 03:01:02;;;;;;;;;12.00;12.00;;;;;17.56;56.72;101312.50;6278082;22;45240;-68
2023/06/06 03:03:27;;;;;;;;;18.75;15.75;;;;;17.50;56.67;101305.59;6277899;22;45462;-68
2023/06/06 03:05:54;;;;;;;;;17.00;15.00;;;;;17.61;56.48;101332.03;6277801;22;45382;-68
2023/06/06 03:08:20;;;;;;;;;14.00;14.00;;;;;17.48;57.01;101328.22;6277411;22;45422;-68
2023/06/06 03:10:50;;;;;;;;;16.25;15.00;;;;;17.44;56.86;101337.41;6250183;22;45407;-68
2023/06/06 03:13:16;;;;;;;;;14.75;14.25;;;;;17.31;57.05;101312.91;6249980;22;48091;-68
2023/06/06 03:15:44;;;;;;;;;15.25;12.75;;;;;17.26;57.35;101323.94;6249895;22;45701;-68
2023/06/06 03:18:17;;;;;;;;;13.75;13.25;;;;;17.22;57.17;101323.22;6277754;22;45378;-68
2023/06/06 03:20:47;;;;;;;;;15.25;14.00;;;;;17.34;57.20;101332.50;6278211;22;45444;-68
2023/06/06 03:23:12;;;;;;;;;14.75;14.25;;;;;17.26;57.27;101313.16;6277195;22;46452;-68
2023/06/06 03:25:43;;;;;;;;;16.25;16.25;;;;;17.27;57.28;101327.50;6277464;22;45400;-68
2023/06/06 03:28:09;;;;;;;;;15.00;12.75;;;;;17.27;57.40;101320.28;6250259;22;45434;-68
2023/06/06 03:30:35;;;;;;;;;13.50;13.50;;;;;17.29;57.72;101330.97;6249948;22;45329;-68
2023/06/06 03:33:00;;;;;;;;;15.75;15.00;;;;;17.23;57.59;101327.66;6250772;22;45430;-67
2023/06/06 03:35:26;;;;;;;;;18.50;14.75;;;;;17.13;57.64;101328.22;6278056;22;45594;-68
2023/06/06 03:37:55;;;;;;;;;16.00;14.00;;;;;17.02;58.00;101307.16;6250067;22;45398;-68
2023/06/06 03:40:21;;;;;;;;;13.00;11.00;;;;;17.12;58.07;101337.25;6276902;22;45506;-68
2023/06/06 03:42:47;;;;;;;;;16.50;13.75;;;;;16.88;58.20;101286.28;6277962;22;45645;-68
2023/06/06 03:45:12;;;;;;;;;18.00;17.75;;;;;16.82;58.14;101283.84;6250094;22;45279;-68
2023/06/06 03:47:37;;;;;;;;;20.25;17.00;;;;;17.09;58.00;101337.38;6277526;22;45236;-68
2023/06/06 03:50:03;;;;;;;;;16.75;16.25;;;;;17.01;58.46;101329.69;6277825;22;45358;-68
2023/06/06 03:52:28;;;;;;;;;19.25;16.75;;;;;16.92;58.32;101333.72;6277719;22;45373;-68
2023/06/06 03:54:55;;;;;;;;;16.25;15.00;;;;;16.92;58.34;101333.72;6249216;22;45719;-68
2023/06/06 03:57:20;;;;;;;;;17.50;15.25;;;;;16.74;58.72;101313.00;6276260;22;45300;-68
2023/06/06 03:59:46;;;;;;;;;19.25;18.75;;;;;16.73;58.82;101319.38;6277523;22;45280;-68
2023/06/06 04:02:11;;;;;;;;;18.00;18.00;;;;;16.69;58.58;101315.97;6277874;22;45838;-68
2023/06/06 04:04:37;;;;;;;;;17.75;17.75;;;;;16.85;59.10;101349.31;6277790;22;45299;-68
2023/06/06 04:07:03;;;;;;;;;16.00;14.25;;;;;16.80;59.15;101334.28;6277565;22;45304;-68
2023/06/06 04:09:28;;;;;;;;;20.75;18.00;;;;;16.88;59.06;101342.91;6249184;22;45866;-68
2023/06/06 04:11:54;;;;;;;;;21.75;21.50;;;;;16.64;58.88;101308.09;6277661;22;45251;-68
2023/06/06 04:14:19;;;;;;;;;19.25;17.75;;;;;16.63;59.14;101324.34;6277698;22;45293;-68
2023/06/06 04:16:45;;;;;;;;;23.25;20.00;;;;;16.78;58.93;101346.97;6277730;22;45404;-68
2023/06/06 04:19:10;;;;;;;;;22.00;18.00;;;;;16.69;59.53;101340.22;6277703;22;45429;-68
2023/06/06 04:21:36;;;;;;;;;21.25;17.25;;;;;16.65;59.59;101336.78;6277609;22;45236;-68
2023/06/06 04:24:01;;;;;;;;;19.50;15.75;;;;;16.66;59.46;101337.66;6276567;22;45245;-68
2023/06/06 04:26:31;;;;;;;;;24.00;19.00;;;;;16.68;59.38;101331.25;6249736;22;45750;-68
2023/06/06 04:29:01;;;;;;;;;24.75;23.50;;;;;16.68;59.24;101328.53;6277437;22;45430;-68
2023/06/06 04:31:29;;;;;;;;;19.00;17.25;;;;;16.65;59.67;101335.91;6224900;22;47331;-68
2023/06/06 04:33:57;;;;;;;;;23.25;22.00;;;;;16.72;59.42;101339.19;6277613;22;45400;-68
2023/06/06 04:36:23;;;;;;;;;21.00;19.75;;;;;16.57;59.64;101313.84;6277271;22;45314;-68
2023/06/06 04:38:50;;;;;;;;;23.50;21.00;;;;;16.52;59.58;101307.81;6276894;22;46023;-68
2023/06/06 04:41:20;;;;;;;;;20.75;16.25;;;;;16.69;59.67;101332.13;6277612;22;45445;-68
2023/06/06 04:43:49;;;;;;;;;27.25;23.25;;;;;16.72;59.46;101340.03;6277802;22;45268;-68
2023/06/06 04:46:21;;;;;;;;;22.25;19.00;;;;;16.46;59.78;101306.28;6249497;22;45372;-68
2023/06/06 04:49:02;;;;;;;;;19.25;18.75;;;;;16.68;59.61;101331.25;6277445;22;45418;-68
2023/06/06 04:51:33;;;;;;;;;22.75;20.75;;;;;16.75;59.95;101350.69;6277364;22;46683;-68
2023/06/06 04:54:00;;;;;;;;;22.75;19.00;;;;;16.59;59.68;101325.41;6277546;22;45275;-68
2023/06/06 04:56:29;;;;;;;;;23.25;20.25;;;;;16.74;59.93;101345.38;6276946;22;45348;-68
2023/06/06 04:58:56;;;;;;;;;23.25;22.25;;;;;16.73;60.14;101343.63;6277107;22;45468;-68
2023/06/06 05:01:23;;;;;;;;;23.00;21.50;;;;;16.68;60.01;101333.94;6249571;22;47117;-68
2023/06/06 05:03:49;;;;;;;;;24.50;22.00;;;;;16.65;60.04;101331.38;6277193;22;45290;-68
2023/06/06 05:06:14;;;;;;;;;26.00;22.00;;;;;16.62;59.79;101325.28;6277548;22;45283;-68
2023/06/06 05:08:44;;;;;;;;;32.50;29.25;;;;;16.72;60.02;101326.56;6276254;22;45330;-68
2023/06/06 05:11:10;;;;;;;;;25.50;23.75;;;;;16.78;59.92;101344.28;6249692;22;47367;-68
2023/06/06 05:13:35;;;;;;;;;29.00;28.25;;;;;16.74;59.78;101330.09;6277594;22;45349;-68
2023/06/06 05:16:00;;;;;;;;;24.50;20.50;;;;;16.73;59.88;101331.03;6277248;22;45273;-69
2023/06/06 05:18:26;;;;;;;;;28.25;26.00;;;;;16.60;59.93;101311.88;6277152;22;45264;-69
2023/06/06 05:20:51;;;;;;;;;33.75;31.25;;;;;16.58;60.06;101305.69;6277403;22;45580;-68
2023/06/06 05:23:16;;;;;;;;;28.75;24.00;;;;;16.65;60.24;101311.66;6277234;22;45315;-68
2023/06/06 05:25:42;;;;;;;;;30.00;28.75;;;;;16.72;60.11;101318.47;6277033;22;45236;-68
2023/06/06 05:28:11;;;;;;;;;31.75;29.00;;;;;16.73;59.93;101316.69;6249046;22;49211;-68
2023/06/06 05:30:36;;;;;;;;;27.25;25.50;;;;;16.59;60.19;101304.75;6248922;22;47371;-68
2023/06/06 05:33:02;;;;;;;;;28.50;26.00;;;;;16.89;60.19;101351.88;6249560;22;45236;-68
2023/06/06 05:35:27;;;;;;;;;29.75;28.25;;;;;16.85;60.05;101356.53;6249635;22;45398;-68
2023/06/06 05:37:52;;;;;;;;;33.50;28.50;;;;;16.80;60.05;101356.72;6275131;22;45433;-68
2023/06/06 05:40:18;;;;;;;;;29.50;26.50;;;;;16.72;60.54;101350.81;6276640;22;46144;-68
2023/06/06 05:42:43;;;;;;;;;36.00;30.00;;;;;16.51;60.50;101316.84;6276907;22;45299;-75
2023/06/06 05:45:09;;;;;;;;;35.75;31.25;;;;;16.47;60.46;101308.03;6275520;22;45391;-76
2023/06/06 05:47:34;;;;;;;;;30.00;27.25;;;;;16.81;60.43;101363.00;6276532;22;45403;-75
2023/06/06 05:50:00;;;;;;;;;31.00;28.50;;;;;16.76;60.47;101341.66;6275689;22;45334;-74
2023/06/06 05:52:26;;;;;;;;;35.00;31.25;;;;;16.76;60.43;101343.50;6275005;22;45255;-75
2023/06/06 05:55:02;;;;;;;;;25.00;24.50;;;;;16.79;60.33;101338.81;6275812;22;45252;-76
2023/06/06 05:57:27;;;;;;;;;30.50;29.50;;;;;16.48;60.50;101294.47;6275719;22;45245;-78
2023/06/06 05:59:53;;;;;;;;;33.50;30.25;;;;;16.80;60.59;101361.25;6276553;22;45381;-76
2023/06/06 06:02:20;;;;;;;;;34.00;30.25;;;;;16.83;60.89;101363.81;6276924;22;45232;-76
2023/06/06 06:04:45;;;;;;;;;33.25;29.25;;;;;16.70;60.81;101349.16;6248814;22;45313;-76
2023/06/06 06:07:11;;;;;;;;;34.50;29.75;;;;;16.57;60.79;101325.53;6275997;22;45489;-78
2023/06/06 06:09:39;;;;;;;;;30.00;29.00;;;;;16.65;60.65;101344.00;6244684;22;47147;-75
2023/06/06 06:12:05;;;;;;;;;37.75;31.75;;;;;16.36;61.33;101315.75;6275666;22;47460;-77
2023/06/06 06:14:31;;;;;;;;;33.00;31.00;;;;;16.51;61.28;101339.28;6275815;22;45438;-78
2023/06/06 06:16:56;;;;;;;;;31.75;27.75;;;;;16.28;61.10;101300.81;6276630;22;45383;-78
2023/06/06 06:19:22;;;;;;;;;35.75;29.75;;;;;16.68;61.64;101366.28;6275943;22;45800;-77
2023/06/06 06:21:47;;;;;;;;;33.25;28.50;;;;;16.61;61.58;101350.50;6277254;22;45207;-76
2023/06/06 06:24:12;;;;;;;;;28.50;26.50;;;;;16.56;61.27;101337.22;6248173;22;56493;-77
2023/06/06 06:26:38;;;;;;;;;30.75;29.25;;;;;16.76;61.20;101367.75;6276740;22;45430;-79
2023/06/06 06:29:03;;;;;;;;;33.50;28.50;;;;;16.76;61.30;101362.38;6275864;22;46198;-77
2023/06/06 06:31:28;;;;;;;;;33.25;30.00;;;;;16.48;61.47;101317.88;6275887;22;45335;-77
2023/06/06 06:33:54;;;;;;;;;37.50;32.75;;;;;16.80;61.32;101361.25;6248586;22;45611;-77
2023/06/06 06:36:21;;;;;;;;;37.50;30.00;;;;;16.42;61.46;101307.38;6275454;22;45243;-77
2023/06/06 06:38:46;;;;;;;;;30.00;28.25;;;;;16.78;61.61;101361.31;6274476;22;45414;-77
2023/06/06 06:41:15;;;;;;;;;36.50;31.50;;;;;16.66;61.73;101334.97;6248764;22;45476;-74
2023/06/06 06:43:40;;;;;;;;;33.00;31.00;;;;;16.74;62.04;101345.38;6276070;22;45339;-76
2023/06/06 06:46:05;;;;;;;;;39.50;33.50;;;;;16.63;61.44;101330.59;6277517;22;45339;-76
2023/06/06 06:48:31;;;;;;;;;30.00;29.00;;;;;16.76;61.56;101346.19;6249139;22;47173;-77
2023/06/06 06:50:56;;;;;;;;;34.75;30.50;;;;;16.70;61.58;101333.88;6249564;22;45408;-77
2023/06/06 06:53:25;;;;;;;;;33.50;30.50;;;;;17.01;61.67;101362.94;6277206;22;45434;-77
2023/06/06 06:55:55;;;;;;;;;42.00;35.00;;;;;16.78;61.75;101320.03;6249837;22;45384;-77
2023/06/06 06:58:33;;;;;;;;;34.25;31.25;;;;;16.78;61.83;101311.94;6275396;22;46023;-77
2023/06/06 07:01:00;;;;;;;;;37.25;31.75;;;;;16.85;61.66;101333.13;6280425;22;45594;-77
2023/06/06 07:03:25;;;;;;;;;36.00;31.00;;;;;17.10;61.31;101385.00;6280381;22;45471;-77
2023/06/06 07:05:50;;;;;;;;;34.50;32.00;;;;;17.04;61.26;101354.69;6281387;22;45252;-77
2023/06/06 07:08:16;;;;;;;;;36.25;31.25;;;;;17.12;61.43;101373.16;6279874;22;45900;-77
2023/06/06 07:10:42;;;;;;;;;46.50;36.25;;;;;17.02;61.54;101353.91;6282118;22;45246;-77
2023/06/06 07:13:07;;;;;;;;;34.75;30.25;;;;;17.13;61.67;101360.59;6273289;22;45378;-77
2023/06/06 07:15:36;;;;;;;;;31.75;28.75;;;;;17.23;61.91;101380.75;6280515;22;45643;-76
2023/06/06 07:18:02;;;;;;;;;36.25;32.00;;;;;17.18;61.99;101354.00;6280185;22;46240;-76
2023/06/06 07:20:28;;;;;;;;;32.50;30.75;;;;;17.19;61.59;101346.75;6253059;22;45272;-77
2023/06/06 07:22:53;;;;;;;;;37.00;32.75;;;;;17.21;61.62;101347.59;6280671;22;45353;-77
2023/06/06 07:25:19;;;;;;;;;35.25;31.50;;;;;17.21;61.40;101339.50;6281192;22;45287;-77
2023/06/06 07:27:44;;;;;;;;;33.75;31.50;;;;;17.17;61.37;101321.69;6250982;22;47571;-76
2023/06/06 07:30:14;;;;;;;;;37.50;33.25;;;;;17.45;61.11;101372.44;6280629;22;45260;-77
2023/06/06 07:32:43;;;;;;;;;35.50;32.00;;;;;17.51;61.52;101371.25;6278938;22;45389;-76
2023/06/06 07:35:10;;;;;;;;;38.75;33.50;;;;;17.35;61.76;101349.56;6280048;22;45213;-77
2023/06/06 07:37:36;;;;;;;;;35.75;32.50;;;;;17.31;61.73;101338.06;6280692;22;45400;-77
2023/06/06 07:40:05;;;;;;;;;31.00;29.25;;;;;17.33;61.76;101330.75;6280104;22;45432;-76
2023/06/06 07:42:30;;;;;;;;;31.00;29.50;;;;;17.60;61.26;101368.94;6281127;22;45395;-76
2023/06/06 07:44:56;;;;;;;;;36.25;32.25;;;;;17.67;61.85;101368.63;6252859;22;45476;-76
2023/06/06 07:47:23;;;;;;;;;39.00;32.00;;;;;17.50;61.51;101329.03;6253003;22;46869;-76
2023/06/06 07:49:50;;;;;;;;;37.75;33.00;;;;;17.74;61.39;101361.94;6252917;22;45946;-76
2023/06/06 07:52:16;;;;;;;;;29.00;27.50;;;;;17.59;61.29;101344.72;6281002;22;45349;-76
2023/06/06 07:54:41;;;;;;;;;31.50;29.75;;;;;17.80;61.34;101363.47;6281013;22;45249;-76
2023/06/06 07:57:11;;;;;;;;;37.50;32.00;;;;;17.61;61.27;101321.25;6251680;22;46101;-77
2023/06/06 07:59:37;;;;;;;;;39.25;32.50;;;;;17.94;62.21;101364.50;6253167;22;44804;-76
2023/06/06 08:02:03;;;;;;;;;33.50;28.50;;;;;17.83;61.59;101330.91;6281141;22;45251;-76
2023/06/06 08:04:28;;;;;;;;;29.00;29.00;;;;;17.99;60.82;101342.63;6280837;22;45250;-77
2023/06/06 08:06:54;;;;;;;;;35.75;31.75;;;;;18.03;60.63;101335.25;6280477;22;45210;-76
2023/06/06 08:09:19;;;;;;;;;38.25;31.75;;;;;18.04;61.09;101324.38;6252001;22;45311;-76
2023/06/06 08:11:45;;;;;;;;;37.75;33.00;;;;;18.11;60.47;101314.97;6280765;22;44901;-76
2023/06/06 08:14:10;;;;;;;;;34.50;31.75;;;;;18.33;61.12;101348.91;6281898;22;45252;-77
2023/06/06 08:16:37;;;;;;;;;28.25;27.50;;;;;18.31;60.34;101321.09;6280201;22;46438;-77
2023/06/06 08:19:03;;;;;;;;;46.25;36.25;;;;;18.37;60.26;101328.84;6280824;22;45406;-77
2023/06/06 08:21:28;;;;;;;;;36.00;34.00;;;;;18.40;60.44;101333.22;6280657;22;45910;-77
2023/06/06 08:23:55;;;;;;;;;37.50;31.50;;;;;18.41;60.21;101338.56;6280862;22;45546;-76
2023/06/06 08:26:25;;;;;;;;;39.50;35.50;;;;;18.56;60.23;101338.63;6279161;22;46514;-77
2023/06/06 08:28:50;;;;;;;;;36.25;33.25;;;;;18.64;60.56;101341.78;6279930;22;45308;-76
2023/06/06 08:31:16;;;;;;;;;33.00;31.50;;;;;18.56;59.76;101307.09;6280167;22;45240;-77
2023/06/06 08:33:42;;;;;;;;;40.25;35.25;;;;;18.73;59.42;101332.25;6280795;22;45232;-76
2023/06/06 08:36:08;;;;;;;;;34.25;31.50;;;;;18.94;60.18;101347.28;6279588;22;45497;-77
2023/06/06 08:38:34;;;;;;;;;39.50;33.50;;;;;18.86;59.06;101334.22;6280257;22;45000;-77
2023/06/06 08:41:01;;;;;;;;;40.50;32.50;;;;;18.84;59.53;101319.91;6279669;22;45455;-77
2023/06/06 08:43:27;;;;;;;;;37.50;35.00;;;;;19.12;58.91;101355.31;6251332;22;45617;-76
2023/06/06 08:45:56;;;;;;;;;36.75;33.50;;;;;19.16;59.37;101356.84;6279101;22;45618;-76
2023/06/06 08:48:26;;;;;;;;;40.00;32.75;;;;;19.23;58.85;101358.25;6251971;22;45222;-77
2023/06/06 08:50:52;;;;;;;;;37.75;35.25;;;;;19.31;58.91;101357.78;6280132;22;45377;-76
2023/06/06 08:53:18;;;;;;;;;36.00;31.25;;;;;19.14;58.85;101315.50;6252190;22;45375;-77
2023/06/06 08:55:44;;;;;;;;;34.50;29.00;;;;;19.42;58.67;101364.31;6280537;22;46621;-77
2023/06/06 08:58:11;;;;;;;;;30.75;24.75;;;;;19.44;58.72;101350.69;6280666;22;45390;-76
2023/06/06 09:00:37;;;;;;;;;37.00;31.75;;;;;19.59;58.37;101365.13;6251655;22;45665;-77
2023/06/06 09:03:11;;;;;;;;;38.50;33.50;;;;;19.63;58.40;101359.44;6278763;22;45698;-76
2023/06/06 09:05:38;;;;;;;;;27.75;26.75;;;;;19.48;58.50;101333.31;6251699;22;47123;-77
2023/06/06 09:08:04;;;;;;;;;32.00;29.75;;;;;19.75;58.04;101359.69;6279424;22;45339;-76
2023/06/06 09:10:29;;;;;;;;;26.00;24.75;;;;;19.81;57.81;101356.59;6277940;22;45414;-76
2023/06/06 09:12:54;;;;;;;;;26.75;25.50;;;;;19.66;57.80;101323.16;6278581;22;45454;-77
2023/06/06 09:15:20;;;;;;;;;25.75;25.75;;;;;19.92;57.69;101356.81;6278703;22;45517;-77
2023/06/06 09:17:46;;;;;;;;;25.75;22.75;;;;;19.88;57.53;101339.03;6280156;22;45390;-77
2023/06/06 09:20:15;;;;;;;;;33.50;25.00;;;;;19.97;57.64;101349.25;6280386;22;45329;-76
2023/06/06 09:22:45;;;;;;;;;25.50;25.25;;;;;19.96;57.99;101320.44;6279923;22;45357;-77
2023/06/06 09:25:22;;;;;;;;;34.75;32.25;;;;;20.07;57.13;101317.03;6278029;22;45366;-76
2023/06/06 09:27:52;;;;;;;;;34.00;31.75;;;;;20.15;56.72;101330.13;6278963;22;45615;-76
2023/06/06 09:30:23;;;;;;;;;31.00;29.75;;;;;20.19;56.33;101318.09;6279582;22;45303;-77
2023/06/06 09:33:00;;;;;;;;;21.25;18.50;;;;;20.41;56.85;101344.69;6252685;22;45256;-77
2023/06/06 09:35:30;;;;;;;;;29.50;24.75;;;;;20.47;56.39;101346.16;6279766;22;45432;-77
2023/06/06 09:37:56;;;;;;;;;27.25;26.00;;;;;20.55;56.18;101349.25;6277424;22;45433;-77
2023/06/06 09:40:22;;;;;;;;;31.00;30.25;;;;;20.46;55.97;101325.44;6278624;22;45418;-77
2023/06/06 09:42:49;;;;;;;;;25.25;22.25;;;;;20.60;55.58;101341.69;6277962;22;45517;-77
2023/06/06 09:45:19;;;;;;;;;27.50;26.25;;;;;20.44;56.01;101302.97;6279686;22;45223;-77
2023/06/06 09:47:48;;;;;;;;;26.75;24.25;;;;;20.47;55.41;101300.94;6279347;22;45347;-77
2023/06/06 09:50:16;;;;;;;;;29.50;28.25;;;;;20.54;55.72;101312.25;6279422;22;45201;-77
2023/06/06 09:52:42;;;;;;;;;29.50;25.25;;;;;20.70;55.56;101325.72;6278580;22;45289;-78
2023/06/06 09:55:13;;;;;;;;;27.50;25.00;;;;;20.83;55.94;101336.63;6280082;22;45337;-77
2023/06/06 09:57:40;;;;;;;;;31.00;25.75;;;;;20.67;55.68;101296.94;6278606;22;45537;-76
2023/06/06 10:00:26;;;;;;;;;29.75;28.00;;;;;20.98;55.59;101335.63;6280070;22;45267;-76
2023/06/06 10:02:52;;;;;;;;;25.75;24.25;;;;;20.91;55.48;101310.72;6276018;22;45344;-76
2023/06/06 10:05:18;;;;;;;;;28.00;24.75;;;;;20.93;55.61;101299.75;6280783;22;46550;-76
2023/06/06 10:07:45;;;;;;;;;30.00;28.25;;;;;21.16;55.02;101328.06;6251337;22;45332;-75
2023/06/06 10:10:15;;;;;;;;;28.75;27.50;;;;;21.21;55.61;101327.75;6280368;22;45339;-76
2023/06/06 10:12:43;;;;;;;;;28.75;26.50;;;;;20.98;54.93;101277.72;6279864;22;45323;-77
2023/06/06 10:15:11;;;;;;;;;23.25;23.25;;;;;21.34;54.06;101323.22;6281121;22;45334;-76
2023/06/06 10:17:40;;;;;;;;;29.25;26.50;;;;;21.41;54.18;101338.09;6280729;22;45197;-76
2023/06/06 10:20:06;;;;;;;;;26.25;23.50;;;;;21.31;53.98;101292.69;6280094;22;45424;-76
2023/06/06 10:22:36;;;;;;;;;26.50;23.75;;;;;21.32;53.95;101299.84;6253048;22;45906;-77
2023/06/06 10:25:13;;;;;;;;;31.25;26.50;;;;;21.41;53.50;101299.22;6281047;22;45819;-75
2023/06/06 10:28:10;;;;;;;;;25.25;21.00;;;;;21.42;53.14;101292.84;6280969;22;45432;-77
2023/06/06 10:30:41;;;;;;;;;25.50;21.50;;;;;21.61;53.29;101316.88;6279173;22;45316;-77
2023/06/06 10:33:25;;;;;;;;;31.50;26.00;;;;;21.65;52.61;101308.41;6280058;22;45304;-76
2023/06/06 10:36:15;;;;;;;;;25.50;22.25;;;;;21.71;52.92;101323.41;6280385;22;45426;-76
2023/06/06 10:38:42;;;;;;;;;29.25;27.75;;;;;21.77;53.08;101317.56;6272720;22;45281;-77
2023/06/06 10:41:18;;;;;;;;;25.50;22.50;;;;;21.80;52.55;101311.00;6275548;22;45286;-76
2023/06/06 10:43:46;;;;;;;;;22.50;22.50;;;;;21.88;53.20;101303.19;6276479;22;45450;-76
2023/06/06 10:46:12;;;;;;;;;19.75;16.50;;;;;21.91;52.04;101300.25;6276668;22;45430;-77
2023/06/06 10:48:45;;;;;;;;;21.50;17.25;;;;;21.95;52.19;101296.34;6277939;22;45566;-77
2023/06/06 10:51:31;;;;;;;;;19.25;18.25;;;;;22.04;52.74;101297.53;6277366;22;45813;-76
2023/06/06 10:54:19;;;;;;;;;24.75;22.00;;;;;22.10;52.16;101302.53;6278498;22;45421;-76
2023/06/06 10:56:51;;;;;;;;;22.25;21.75;;;;;22.15;52.38;101286.75;6275899;22;46268;-76
2023/06/06 10:59:16;;;;;;;;;21.00;20.75;;;;;22.17;51.68;101283.94;6275883;22;45372;-76
2023/06/06 11:01:44;;;;;;;;;19.25;19.00;;;;;22.28;51.84;101288.56;6274835;22;45364;-76
2023/06/06 11:04:37;;;;;;;;;24.50;19.25;;;;;22.33;52.14;101280.97;6278503;22;45204;-76
2023/06/06 11:07:15;;;;;;;;;28.75;28.50;;;;;22.21;51.87;101250.94;6279045;22;46263;-76
2023/06/06 11:09:42;;;;;;;;;20.75;20.50;;;;;22.23;51.14;101248.13;6278105;22;45196;-76
2023/06/06 11:12:13;;;;;;;;;23.50;22.75;;;;;22.46;50.81;101276.38;6251014;22;45320;-76